DAAG/ALG METAR and TAF weather

Enter ICAO airport designator
Station Type Date Time Source
DAAG METAR 2019/02/23 22:30 UTC NOAA

DAAG 232230Z 27002KT 9999 SCT015 07/05 Q1026


Station Type Date Time Source
DAAG Decoded METAR 2019/02/23 22:30 UTC NOAA

Dar-El-Beida, Algeria (DAAG) 36-43N 003-15E 25M
Feb 23, 2019 - 05:30 PM EST / 2019.02.23 2230 UTC
Wind: from the W (270 degrees) at 2 MPH (2 KT):0
Visibility: greater than 7 mile(s):0
Sky conditions: partly cloudy
Temperature: 44 F (7 C)
Dew Point: 41 F (5 C)
Relative Humidity: 87%
Pressure (altimeter): 30.30 in. Hg (1026 hPa)
ob: DAAG 232230Z 27002KT 9999 SCT015 07/05 Q1026
cycle: 22

Station Type Date Time Source
DAAG TAF 2019/02/23 18:33 UTC NOAA

TAF TAF DAAG 231700Z 2318/2418 31010KT 9999 FEW020
BECMG 2319/2321 VRB02KT PROB40 2321/2406 3000 BR BKN015 PROB30
TEMPO 2400/2406 0600 FG
BECMG 2407/2411 03010KT PROB40
TEMPO 2408/2416 FEW023TCU


Example: see airport list